createdAt,value
2022-08-10T00:01:05.263Z,15.20
2022-08-10T00:09:56.272Z,15.13
2022-08-10T00:13:18.054Z,15.08
2022-08-10T00:15:55.819Z,15.05
2022-08-10T00:23:00.444Z,14.95
2022-08-10T00:25:38.883Z,14.89
2022-08-10T00:28:37.267Z,14.86
2022-08-10T00:31:10.202Z,14.81
2022-08-10T00:33:47.695Z,14.79
2022-08-10T00:36:49.705Z,14.77
2022-08-10T00:39:28.129Z,14.75
2022-08-10T00:42:28.867Z,14.71
2022-08-10T00:45:32.366Z,14.67
2022-08-10T00:48:10.573Z,14.63
2022-08-10T00:50:44.913Z,14.58
2022-08-10T00:53:18.983Z,14.56
2022-08-10T00:57:12.301Z,14.55
2022-08-10T00:59:20.023Z,14.52
2022-08-10T01:05:28.428Z,14.47
2022-08-10T01:08:26.286Z,14.45
2022-08-10T01:12:34.236Z,14.42
2022-08-10T01:14:51.976Z,14.38
2022-08-10T01:18:01.888Z,14.36
2022-08-10T01:21:57.394Z,14.34
2022-08-10T01:25:19.133Z,14.29
2022-08-10T01:27:59.873Z,14.28
2022-08-10T01:30:47.010Z,14.26
2022-08-10T01:33:59.050Z,14.25
2022-08-10T01:37:17.270Z,14.21
2022-08-10T01:43:12.212Z,14.14
2022-08-10T01:45:49.737Z,14.13
2022-08-10T01:48:33.401Z,14.12
2022-08-10T01:51:44.210Z,14.10
2022-08-10T01:54:45.477Z,14.07
2022-08-10T01:57:50.564Z,14.05
2022-08-10T02:00:49.014Z,14.02
2022-08-10T02:04:05.242Z,13.99
2022-08-10T02:06:55.476Z,13.97
2022-08-10T02:10:15.170Z,13.95
2022-08-10T02:13:13.288Z,13.93
2022-08-10T02:16:16.617Z,13.91
2022-08-10T02:18:56.530Z,13.89
2022-08-10T02:22:34.973Z,13.88
2022-08-10T02:24:59.689Z,13.85
2022-08-10T02:27:59.247Z,13.82
2022-08-10T02:30:33.922Z,13.80
2022-08-10T02:33:12.322Z,13.78
2022-08-10T02:36:20.550Z,13.75
2022-08-10T02:39:01.399Z,13.73
2022-08-10T02:42:18.359Z,13.71
2022-08-10T02:45:29.727Z,13.68
2022-08-10T02:52:07.540Z,13.66
2022-08-10T02:54:53.310Z,13.67
2022-08-10T02:58:17.281Z,13.67
2022-08-10T03:00:57.930Z,13.65
2022-08-10T03:06:58.440Z,13.61
2022-08-10T03:10:18.886Z,13.59
2022-08-10T03:12:59.823Z,13.56
2022-08-10T03:15:39.937Z,13.54
2022-08-10T03:18:18.083Z,13.53
2022-08-10T03:21:03.019Z,13.51
2022-08-10T03:23:37.182Z,13.50
2022-08-10T03:26:12.888Z,13.50
2022-08-10T03:28:47.654Z,13.49
2022-08-10T03:31:46.457Z,13.49
2022-08-10T03:37:59.222Z,13.47
2022-08-10T03:41:05.239Z,13.46
2022-08-10T03:43:44.506Z,13.46
2022-08-10T03:46:29.561Z,13.53
2022-08-10T03:52:53.246Z,13.66
2022-08-10T03:56:28.211Z,13.68
2022-08-10T04:04:33.464Z,13.81
2022-08-10T04:07:10.137Z,13.87
2022-08-10T04:10:31.078Z,13.93
2022-08-10T04:13:10.039Z,14.02
2022-08-10T04:15:58.343Z,14.11
2022-08-10T04:18:59.274Z,14.25
2022-08-10T04:22:07.362Z,14.54
2022-08-10T04:25:08.538Z,14.78
2022-08-10T04:27:48.974Z,14.94
2022-08-10T04:33:57.013Z,15.11
2022-08-10T04:37:20.471Z,15.16
2022-08-10T04:39:54.977Z,15.23
2022-08-10T04:49:01.946Z,15.45
2022-08-10T04:51:39.541Z,15.56
2022-08-10T04:54:41.926Z,15.65
2022-08-10T04:57:45.806Z,15.73
2022-08-10T05:01:10.695Z,15.78
2022-08-10T05:04:36.394Z,15.88
2022-08-10T05:07:08.936Z,15.97
2022-08-10T05:13:40.333Z,16.24
2022-08-10T05:16:31.544Z,16.35
2022-08-10T05:20:04.813Z,16.51
2022-08-10T05:22:38.345Z,16.66
2022-08-10T05:25:18.973Z,16.77
2022-08-10T05:28:17.419Z,16.81
2022-08-10T05:30:59.305Z,16.83
2022-08-10T05:33:59.164Z,16.86
2022-08-10T05:37:05.735Z,16.95
2022-08-10T05:40:25.106Z,17.15
2022-08-10T05:46:47.680Z,17.49
2022-08-10T05:49:21.369Z,17.59
2022-08-10T05:52:24.566Z,17.76
2022-08-10T05:55:26.809Z,17.95
2022-08-10T05:58:02.605Z,18.16
2022-08-10T06:02:31.748Z,18.33
2022-08-10T06:05:10.858Z,18.51
2022-08-10T06:08:14.270Z,18.73
2022-08-10T06:12:27.166Z,18.95
2022-08-10T06:14:33.101Z,19.14
2022-08-10T06:17:14.421Z,19.34
2022-08-10T06:19:54.770Z,19.59
2022-08-10T06:26:08.405Z,20.07
2022-08-10T06:32:16.368Z,20.51
2022-08-10T06:35:21.396Z,20.65
2022-08-10T06:38:19.446Z,20.77
2022-08-10T06:40:53.799Z,20.92
2022-08-10T06:43:39.577Z,21.03
2022-08-10T06:53:04.332Z,21.52
2022-08-10T06:59:32.022Z,21.80
2022-08-10T07:02:14.562Z,21.86
2022-08-10T07:05:59.093Z,21.87
2022-08-10T07:08:39.762Z,21.95
2022-08-10T07:14:19.029Z,22.15
2022-08-10T07:16:52.137Z,22.18
2022-08-10T07:19:26.368Z,22.24
2022-08-10T07:21:59.962Z,22.35
2022-08-10T07:24:34.529Z,22.46
2022-08-10T07:27:09.522Z,22.42
2022-08-10T07:29:54.233Z,22.33
2022-08-10T07:32:29.309Z,22.30
2022-08-10T07:35:03.476Z,22.31
2022-08-10T07:37:38.154Z,22.38
2022-08-10T07:40:13.020Z,22.49
2022-08-10T07:42:47.653Z,22.63
2022-08-10T07:45:19.784Z,22.79
2022-08-10T07:48:05.045Z,22.99
2022-08-10T07:50:42.414Z,23.17
2022-08-10T07:53:18.225Z,23.27
2022-08-10T07:56:04.417Z,23.34
2022-08-10T07:58:51.985Z,23.32
2022-08-10T08:01:33.742Z,23.41
2022-08-10T08:04:11.202Z,23.48
2022-08-10T08:06:46.201Z,23.42
2022-08-10T08:09:18.397Z,23.33
2022-08-10T08:11:50.958Z,23.26
2022-08-10T08:14:24.501Z,23.28
2022-08-10T08:16:57.878Z,23.32
2022-08-10T08:19:38.002Z,23.39
2022-08-10T08:24:06.416Z,23.49
2022-08-10T08:25:14.496Z,23.65
2022-08-10T08:27:53.250Z,23.73
2022-08-10T08:30:28.216Z,23.81
2022-08-10T08:33:04.174Z,23.86
2022-08-10T08:35:36.941Z,23.88
2022-08-10T08:38:33.407Z,23.86
2022-08-10T08:41:17.773Z,24.00
2022-08-10T08:44:00.795Z,24.10
2022-08-10T08:46:58.814Z,24.09
2022-08-10T08:50:08.951Z,24.14
2022-08-10T08:52:56.004Z,24.27
2022-08-10T08:56:04.857Z,24.38
2022-08-10T08:58:53.915Z,24.48
2022-08-10T09:01:41.200Z,24.53
2022-08-10T09:04:29.584Z,24.55
2022-08-10T09:08:01.963Z,24.55
2022-08-10T09:10:42.880Z,24.72
2022-08-10T09:13:27.034Z,24.92
2022-08-10T09:16:21.921Z,25.13
2022-08-10T09:18:57.921Z,25.35
2022-08-10T09:21:43.391Z,25.49
2022-08-10T09:24:38.052Z,25.66
2022-08-10T09:27:20.147Z,25.75
2022-08-10T09:29:57.554Z,25.51
2022-08-10T09:36:16.062Z,25.37
2022-08-10T09:36:21.265Z,25.36
2022-08-10T09:38:44.406Z,25.17
2022-08-10T09:41:32.688Z,25.12
2022-08-10T09:44:15.470Z,25.26
2022-08-10T09:47:08.266Z,25.44
2022-08-10T09:50:04.696Z,25.54
2022-08-10T09:52:45.485Z,25.64
2022-08-10T09:55:22.098Z,25.57
2022-08-10T09:58:32.533Z,25.23
2022-08-10T10:01:56.293Z,25.01
2022-08-10T10:04:12.024Z,24.91
2022-08-10T10:06:49.928Z,24.93
2022-08-10T10:09:27.192Z,24.83
2022-08-10T10:12:09.761Z,24.64
2022-08-10T10:15:25.179Z,24.66
2022-08-10T10:18:09.885Z,24.85
2022-08-10T10:20:46.531Z,24.99
2022-08-10T10:23:25.711Z,25.19
2022-08-10T10:26:10.591Z,25.35
2022-08-10T10:29:44.737Z,25.67
2022-08-10T10:32:00.558Z,26.02
2022-08-10T10:34:39.295Z,26.26
2022-08-10T10:37:13.436Z,26.35
2022-08-10T10:39:49.070Z,26.34
2022-08-10T10:42:44.801Z,26.05
2022-08-10T10:45:22.604Z,25.90
2022-08-10T10:48:17.788Z,25.70
2022-08-10T10:51:10.264Z,25.36
2022-08-10T10:53:49.214Z,25.19
2022-08-10T10:56:29.679Z,25.02
2022-08-10T10:59:53.995Z,25.06
2022-08-10T11:02:21.958Z,25.10
2022-08-10T11:05:04.531Z,25.18
2022-08-10T11:07:39.732Z,25.21
2022-08-10T11:10:33.085Z,25.27
2022-08-10T11:14:24.341Z,25.30
2022-08-10T11:16:31.245Z,25.36
2022-08-10T11:19:11.933Z,25.36
2022-08-10T11:22:03.519Z,25.39
2022-08-10T11:24:49.763Z,25.43
2022-08-10T11:27:35.229Z,25.63
2022-08-10T11:30:13.210Z,25.89
2022-08-10T11:33:05.488Z,26.08
2022-08-10T11:35:47.026Z,26.36
2022-08-10T11:38:29.773Z,26.64
2022-08-10T11:42:10.114Z,26.97
2022-08-10T11:44:13.267Z,27.25
2022-08-10T11:46:49.781Z,27.34
2022-08-10T11:49:34.287Z,27.08
2022-08-10T11:52:15.933Z,26.79
2022-08-10T11:54:52.162Z,26.49
2022-08-10T11:57:54.130Z,26.44
2022-08-10T12:00:29.527Z,26.62
2022-08-10T12:03:07.497Z,26.96
2022-08-10T12:05:53.130Z,27.38
2022-08-10T12:10:05.907Z,27.73
2022-08-10T12:11:26.532Z,28.07
2022-08-10T12:14:22.572Z,28.30
2022-08-10T12:20:31.994Z,28.70
2022-08-10T12:23:21.164Z,29.16
2022-08-10T12:26:39.034Z,29.54
2022-08-10T12:29:44.184Z,29.81
2022-08-10T12:32:54.627Z,29.98
2022-08-10T12:35:56.079Z,30.30
2022-08-10T12:42:39.368Z,30.59
2022-08-10T12:45:25.966Z,30.68
2022-08-10T12:48:07.142Z,30.88
2022-08-10T12:51:30.998Z,31.05
2022-08-10T12:57:40.512Z,30.93
2022-08-10T13:00:17.917Z,31.10
2022-08-10T13:04:20.694Z,31.20
2022-08-10T13:06:40.411Z,31.35
2022-08-10T13:09:17.819Z,31.39
2022-08-10T13:12:37.875Z,31.46
2022-08-10T13:15:25.440Z,31.70
2022-08-10T13:24:44.452Z,31.94
2022-08-10T13:28:01.189Z,31.01
2022-08-10T13:34:39.095Z,30.56
2022-08-10T13:36:32.871Z,30.65
2022-08-10T13:39:58.870Z,30.97
2022-08-10T13:46:31.418Z,32.02
2022-08-10T13:49:09.503Z,32.25
2022-08-10T13:51:56.636Z,31.92
2022-08-10T13:54:41.633Z,31.49
2022-08-10T13:57:31.366Z,31.35
2022-08-10T14:00:34.080Z,31.18
2022-08-10T14:03:13.194Z,31.08
2022-08-10T14:05:56.916Z,30.88
2022-08-10T14:08:39.543Z,31.04
2022-08-10T14:11:35.326Z,31.35
2022-08-10T14:14:17.799Z,31.73
2022-08-10T14:17:24.868Z,31.98
2022-08-10T14:20:03.392Z,32.18
2022-08-10T14:23:07.623Z,32.40
2022-08-10T14:25:56.225Z,32.58
2022-08-10T14:32:28.221Z,32.92
2022-08-10T14:36:19.160Z,33.01
2022-08-10T14:42:01.576Z,33.11
2022-08-10T14:45:28.845Z,32.81
2022-08-10T14:48:40.228Z,31.82
2022-08-10T14:51:17.033Z,30.90
2022-08-10T14:54:39.218Z,30.16
2022-08-10T14:57:15.928Z,29.91
2022-08-10T15:00:30.719Z,30.09
2022-08-10T15:03:59.070Z,30.56
2022-08-10T15:06:03.677Z,31.03
2022-08-10T15:08:40.235Z,31.45
2022-08-10T15:12:14.127Z,31.79
2022-08-10T15:14:38.730Z,32.06
2022-08-10T15:17:04.693Z,32.34
2022-08-10T15:20:03.120Z,31.99
2022-08-10T15:22:38.923Z,31.65
2022-08-10T15:29:23.067Z,31.78
2022-08-10T15:32:30.711Z,31.33
2022-08-10T15:35:51.840Z,31.32
2022-08-10T15:42:08.413Z,32.06
2022-08-10T15:44:49.522Z,32.37
2022-08-10T15:47:45.943Z,32.48
2022-08-10T15:50:31.238Z,32.35
2022-08-10T15:53:49.293Z,32.37
2022-08-10T15:56:38.136Z,32.36
2022-08-10T15:59:21.102Z,32.29
2022-08-10T16:02:16.012Z,32.14
2022-08-10T16:05:04.000Z,31.99
2022-08-10T16:07:47.972Z,31.98
2022-08-10T16:10:28.855Z,31.99
2022-08-10T16:13:03.113Z,32.02
2022-08-10T16:15:58.067Z,31.87
2022-08-10T16:18:32.060Z,32.01
2022-08-10T16:21:07.898Z,31.93
2022-08-10T16:23:43.168Z,31.83
2022-08-10T16:26:20.001Z,31.43
2022-08-10T16:28:56.848Z,31.22
2022-08-10T16:31:32.658Z,31.35
2022-08-10T16:34:09.540Z,31.13
2022-08-10T16:36:46.434Z,30.45
2022-08-10T16:39:59.427Z,29.94
2022-08-10T16:42:24.098Z,29.39
2022-08-10T16:45:22.876Z,28.95
2022-08-10T16:48:48.615Z,28.36
2022-08-10T16:55:24.736Z,27.35
2022-08-10T16:58:16.971Z,26.77
2022-08-10T17:00:56.559Z,26.48
2022-08-10T17:04:09.904Z,26.14
2022-08-10T17:07:17.507Z,25.79
2022-08-10T17:10:18.187Z,25.52
2022-08-10T17:13:03.338Z,25.33
2022-08-10T17:15:37.425Z,25.09
2022-08-10T17:18:35.965Z,24.81
2022-08-10T17:21:40.939Z,24.55
2022-08-10T17:24:34.694Z,24.34
2022-08-10T17:28:05.263Z,24.17
2022-08-10T17:30:57.811Z,24.01
2022-08-10T17:37:03.432Z,23.73
2022-08-10T17:40:04.394Z,23.61
2022-08-10T17:42:42.022Z,23.48
2022-08-10T17:46:02.482Z,23.36
2022-08-10T17:49:07.107Z,23.21
2022-08-10T17:51:47.356Z,23.10
2022-08-10T17:54:47.429Z,22.96
2022-08-10T17:57:21.713Z,22.83
2022-08-10T17:59:56.504Z,22.71
2022-08-10T18:02:37.347Z,22.60
2022-08-10T18:05:40.580Z,22.49
2022-08-10T18:08:46.841Z,22.36
2022-08-10T18:11:27.183Z,22.21
2022-08-10T18:14:04.812Z,22.11
2022-08-10T18:16:41.626Z,21.98
2022-08-10T18:19:14.950Z,21.83
2022-08-10T18:21:49.518Z,21.71
2022-08-10T18:24:25.011Z,21.55
2022-08-10T18:27:03.278Z,21.42
2022-08-10T18:29:39.500Z,21.28
2022-08-10T18:32:13.019Z,21.15
2022-08-10T18:34:46.756Z,21.03
2022-08-10T18:37:24.140Z,20.91
2022-08-10T18:39:59.516Z,20.78
2022-08-10T18:42:46.257Z,20.66
2022-08-10T18:45:21.397Z,20.55
2022-08-10T18:47:59.913Z,20.44
2022-08-10T18:50:35.504Z,20.33
2022-08-10T18:53:15.717Z,20.21
2022-08-10T18:56:08.783Z,20.11
2022-08-10T18:59:08.383Z,20.00
2022-08-10T19:01:55.719Z,19.92
2022-08-10T19:04:37.464Z,19.83
2022-08-10T19:07:30.508Z,19.75
2022-08-10T19:10:16.604Z,19.65
2022-08-10T19:13:03.023Z,19.57
2022-08-10T19:15:42.411Z,19.49
2022-08-10T19:18:24.539Z,19.40
2022-08-10T19:21:03.470Z,19.32
2022-08-10T19:23:43.932Z,19.25
2022-08-10T19:26:43.302Z,19.17
2022-08-10T19:30:07.912Z,19.07
2022-08-10T19:32:31.534Z,18.97
2022-08-10T19:35:12.894Z,18.88
2022-08-10T19:38:00.386Z,18.80
2022-08-10T19:40:46.421Z,18.72
2022-08-10T19:43:59.592Z,18.62
2022-08-10T19:46:29.567Z,18.52
2022-08-10T19:49:09.032Z,18.43
2022-08-10T19:52:05.011Z,18.37
2022-08-10T19:54:54.326Z,18.28
2022-08-10T19:57:33.200Z,18.21
2022-08-10T20:00:15.648Z,18.13
2022-08-10T20:03:11.960Z,18.05
2022-08-10T20:06:18.602Z,17.98
2022-08-10T20:08:55.399Z,17.92
2022-08-10T20:11:45.016Z,17.86
2022-08-10T20:14:26.048Z,17.80
2022-08-10T20:17:04.591Z,17.73
2022-08-10T20:19:52.858Z,17.67
2022-08-10T20:22:31.436Z,17.61
2022-08-10T20:25:07.977Z,17.55
2022-08-10T20:28:00.755Z,17.49
2022-08-10T20:30:37.881Z,17.42
2022-08-10T20:33:15.446Z,17.39
2022-08-10T20:35:54.714Z,17.39
2022-08-10T20:38:37.711Z,17.42
2022-08-10T20:41:21.307Z,17.44
2022-08-10T20:44:05.857Z,17.41
2022-08-10T20:46:44.073Z,17.37
2022-08-10T20:49:24.654Z,17.32
2022-08-10T20:52:02.336Z,17.28
2022-08-10T20:54:40.167Z,17.23
2022-08-10T20:57:55.758Z,17.15
2022-08-10T21:00:45.795Z,17.08
2022-08-10T21:03:34.369Z,17.03
2022-08-10T21:06:42.314Z,16.99
2022-08-10T21:09:42.541Z,16.95
2022-08-10T21:12:29.461Z,16.92
2022-08-10T21:15:09.049Z,16.88
2022-08-10T21:18:05.862Z,16.87
2022-08-10T21:20:53.846Z,16.83
2022-08-10T21:23:31.042Z,16.78
2022-08-10T21:26:09.931Z,16.74
2022-08-10T21:28:59.360Z,16.72
2022-08-10T21:31:52.606Z,16.67
2022-08-10T21:34:38.686Z,16.62
2022-08-10T21:37:20.356Z,16.57
2022-08-10T21:40:03.237Z,16.51
2022-08-10T21:43:05.237Z,16.46
2022-08-10T21:46:08.121Z,16.39
2022-08-10T21:49:03.451Z,16.31
2022-08-10T21:52:02.045Z,16.27
2022-08-10T21:55:00.364Z,16.21
2022-08-10T21:58:03.369Z,16.14
2022-08-10T22:00:55.360Z,16.08
2022-08-10T22:03:47.295Z,16.03
2022-08-10T22:06:52.074Z,16.01
2022-08-10T22:09:51.788Z,15.98
2022-08-10T22:12:51.214Z,15.95
2022-08-10T22:16:05.324Z,15.92
2022-08-10T22:19:02.876Z,15.88
2022-08-10T22:22:04.394Z,15.85
2022-08-10T22:25:16.906Z,15.82
2022-08-10T22:28:12.376Z,15.79
2022-08-10T22:31:32.272Z,15.75
2022-08-10T22:34:39.282Z,15.70
2022-08-10T22:37:47.881Z,15.66
2022-08-10T22:40:40.639Z,15.62
2022-08-10T22:43:42.106Z,15.59
2022-08-10T22:46:37.875Z,15.56
2022-08-10T22:49:11.515Z,15.52
2022-08-10T22:51:55.735Z,15.49
2022-08-10T22:54:52.923Z,15.45
2022-08-10T22:57:43.579Z,15.41
2022-08-10T23:00:19.303Z,15.38
2022-08-10T23:02:56.691Z,15.36
2022-08-10T23:05:34.121Z,15.36
2022-08-10T23:08:29.632Z,15.35
2022-08-10T23:11:08.697Z,15.34
2022-08-10T23:13:44.653Z,15.32
2022-08-10T23:16:40.718Z,15.31
2022-08-10T23:19:15.134Z,15.28
2022-08-10T23:22:04.048Z,15.25
2022-08-10T23:24:47.008Z,15.21
2022-08-10T23:27:38.387Z,15.19
2022-08-10T23:30:18.081Z,15.20
2022-08-10T23:32:53.004Z,15.19
2022-08-10T23:36:28.106Z,15.17
2022-08-10T23:38:25.983Z,15.15
2022-08-10T23:41:02.686Z,15.12
2022-08-10T23:44:02.735Z,15.08
2022-08-10T23:46:34.308Z,15.04
2022-08-10T23:49:09.302Z,14.99
2022-08-10T23:51:54.920Z,14.96
2022-08-10T23:54:29.549Z,14.91
2022-08-10T23:57:05.056Z,14.86
2022-08-10T23:59:38.861Z,14.85
